Latest Weather Observations for Parndana

IDS60801

Issued at 11:35 pm CST Monday 22 September 2014 (issued every 30 minutes, with the page automatically refreshed every 10 minutes)

About weather observations | Map of weather stations | Latest weather observations for SA | Other Formats
Station Details ID: 022843 Name: PARNDANA CFS AWS Lat: -35.79 Lon: 137.25 Height: 165.0 m
Data from the previous 72 hours. | See also: Recent months at Parndana
Date/Time
CST
Temp
°C
App
Temp
°C
Dew
Point
Rel
Hum
%
Delta-T
°C
Wind Press
QNH
hPa
Press
MSL
hPa
Rain
since 9 am
mm
Dir
 
Spd
km/h
Gust
km/h
Spd
kts
Gust
kts
22/11:30pm 12.1 8.1 2.6 52 4.2 E 13 17 7 9 - - 0.0
22/11:00pm 12.9 8.5 2.5 49 4.6 ENE 15 19 8 10 - - 0.0
22/10:30pm 13.5 8.6 2.1 46 5.0 ENE 17 22 9 12 - - 0.0
22/10:00pm 13.0 8.4 1.4 45 5.0 ENE 15 17 8 9 - - 0.0
22/09:30pm 12.6 8.1 1.9 48 4.6 ENE 15 17 8 9 - - 0.0
22/09:00pm 13.1 8.6 2.4 48 4.7 ENE 15 19 8 10 - - 0.0
22/08:30pm 11.6 8.1 3.4 57 3.7 ENE 11 15 6 8 - - 0.0
22/08:00pm 11.9 7.9 2.9 54 4.0 ENE 13 17 7 9 - - 0.0
22/07:30pm 12.1 8.6 3.6 56 3.8 ENE 11 13 6 7 - - 0.0
22/07:00pm 12.5 9.4 5.4 62 3.3 E 11 13 6 7 - - 0.0
22/06:30pm 14.0 11.6 6.8 62 3.5 ENE 9 9 5 5 - - 0.0
22/06:00pm 15.6 13.0 6.3 54 4.5 ENE 9 11 5 6 - - 0.0
22/05:30pm 18.1 14.4 4.7 41 6.5 NE 13 17 7 9 - - 0.0
22/05:00pm 19.5 15.7 1.5 30 8.2 NNE 11 15 6 8 - - 0.0
22/04:30pm 20.1 15.1 -1.1 24 9.2 N 15 22 8 12 - - 0.0
22/04:00pm 19.9 14.7 -0.1 26 8.9 N 17 22 9 12 - - 0.0
22/03:30pm 20.6 15.2 2.4 30 8.5 N 20 28 11 15 - - 0.0
22/03:00pm 20.9 15.9 3.6 32 8.3 N 19 26 10 14 - - 0.0
22/02:30pm 20.9 15.5 2.7 30 8.6 N 20 32 11 17 - - 0.0
22/02:00pm 21.1 16.0 2.9 30 8.7 N 19 28 10 15 - - 0.0
22/01:30pm 20.9 15.2 2.7 30 8.6 N 22 28 12 15 - - 0.0
22/01:00pm 20.8 15.1 3.1 31 8.4 N 22 32 12 17 - - 0.0
22/12:30pm 20.4 14.7 4.8 36 7.7 N 24 32 13 17 - - 0.0
22/12:00pm 20.3 15.1 7.3 43 6.7 N 24 37 13 20 - - 0.0
22/11:30am 19.6 13.5 4.9 38 7.2 N 26 33 14 18 - - 0.0
22/11:00am 19.2 13.3 6.0 42 6.6 N 26 35 14 19 - - 0.0
22/10:30am 18.4 12.1 5.6 43 6.3 N 28 35 15 19 - - 0.0
22/10:00am 18.2 12.7 6.1 45 6.0 N 24 33 13 18 - - 0.0
22/09:30am 17.5 12.0 6.1 47 5.6 N 24 35 13 19 - - 0.0
22/09:00am 17.0 11.0 5.3 46 5.7 N 26 35 14 19 - - 0.0
22/08:30am 16.5 11.7 5.5 48 5.3 N 20 32 11 17 - - 0.0
22/08:00am 15.3 11.2 6.3 55 4.4 N 17 24 9 13 - - 0.0
22/07:30am 13.2 9.6 6.8 65 3.1 NNE 15 19 8 10 - - 0.0
22/07:00am 11.8 8.5 6.5 70 2.5 N 13 17 7 9 - - 0.0
22/06:30am 10.1 7.0 5.7 74 2.0 N 11 15 6 8 - - 0.0
22/06:00am 9.3 6.2 5.5 77 1.7 NNE 11 13 6 7 - - 0.0
22/05:30am 9.5 6.5 5.9 78 1.7 N 11 13 6 7 - - 0.0
22/05:00am 9.5 6.5 6.0 79 1.6 NNE 11 15 6 8 - - 0.0
22/04:30am 9.7 7.2 6.4 80 1.5 N 9 11 5 6 - - 0.0
22/04:00am 9.8 6.5 6.2 78 1.7 NE 13 17 7 9 - - 0.0
22/03:30am 9.7 6.6 5.5 75 1.9 NNE 11 13 6 7 - - 0.0
22/03:00am 9.8 6.8 6.0 77 1.8 NNE 11 13 6 7 - - 0.0
22/02:30am 10.3 7.0 6.6 78 1.8 NE 13 17 7 9 - - 0.0
22/02:00am 10.4 7.3 7.3 81 1.5 NE 13 17 7 9 - - 0.0
22/01:30am 10.3 7.2 7.2 81 1.5 NE 13 15 7 8 - - 0.0
22/01:00am 10.5 7.7 6.8 78 1.8 NE 11 15 6 8 - - 0.0
22/12:30am 11.2 8.1 7.1 76 2.0 NE 13 17 7 9 - - 0.0
22/12:00am 11.5 7.7 7.4 76 2.0 NE 17 22 9 12 - - 0.0
 
Date/Time
CST
Temp
°C
App
Temp
°C
Dew
Point
Rel
Hum
%
Delta-T
°C
Wind Press
QNH
hPa
Press
MSL
hPa
Rain
since 9 am
mm
Dir
 
Spd
km/h
Gust
km/h
Spd
kts
Gust
kts
21/11:30pm 10.8 7.6 6.9 77 1.9 NE 13 15 7 8 - - 0.0
21/11:00pm 11.1 8.2 6.6 74 2.1 NE 11 17 6 9 - - 0.0
21/10:30pm 11.3 7.9 6.0 70 2.5 NE 13 15 7 8 - - 0.0
21/10:00pm 11.5 8.1 5.8 68 2.7 NE 13 15 7 8 - - 0.0
21/09:30pm 11.5 8.5 5.8 68 2.7 NE 11 13 6 7 - - 0.0
21/09:00pm 11.6 9.0 6.1 69 2.6 NE 9 13 5 7 - - 0.0
21/08:30pm 11.6 9.0 5.9 68 2.7 NE 9 13 5 7 - - 0.0
21/08:00pm 12.0 9.4 6.1 67 2.8 NE 9 11 5 6 - - 0.0
21/07:30pm 11.9 8.9 6.2 68 2.7 NE 11 11 6 6 - - 0.0
21/07:00pm 12.8 10.3 4.5 57 3.8 NE 7 9 4 5 - - 0.0
21/06:30pm 13.9 10.9 3.9 51 4.6 ENE 9 11 5 6 - - 0.0
21/06:00pm 14.9 12.0 4.6 50 4.8 ENE 9 13 5 7 - - 0.0
21/05:30pm 16.5 12.9 5.2 47 5.4 NE 13 17 7 9 - - 0.0
21/05:00pm 17.9 14.1 3.8 39 6.7 NE 13 17 7 9 - - 0.0
21/04:30pm 18.4 14.5 5.3 42 6.4 ENE 15 20 8 11 - - 0.0
21/04:00pm 18.9 14.7 3.9 37 7.2 NE 15 20 8 11 - - 0.0
21/03:30pm 19.0 14.4 3.6 36 7.3 NE 17 22 9 12 - - 0.0
21/03:00pm 19.3 15.3 5.0 39 7.0 NNE 15 20 8 11 - - 0.0
21/02:30pm 19.7 15.6 4.6 37 7.4 NNE 15 20 8 11 - - 0.0
21/02:00pm 19.6 15.2 4.5 37 7.3 NNE 17 22 9 12 - - 0.0
21/01:30pm 19.5 15.0 4.0 36 7.4 NNE 17 20 9 11 - - 0.0
21/01:00pm 20.0 16.9 7.1 43 6.6 NNE 13 19 7 10 - - 0.0
21/12:30pm 19.1 15.7 7.5 47 6.0 NE 15 19 8 10 - - 0.0
21/12:00pm 19.2 16.3 8.2 49 5.7 NNE 13 19 7 10 - - 0.0
21/11:30am 18.4 15.2 6.9 47 5.8 NNE 13 17 7 9 - - 0.0
21/11:00am 18.0 15.5 8.0 52 5.1 NE 11 17 6 9 - - 0.0
21/10:30am 17.2 15.2 10.1 63 3.8 NNE 11 17 6 9 - - 0.0
21/10:00am 16.2 14.1 9.8 66 3.4 NNE 11 17 6 9 - - 0.0
21/09:30am 15.4 13.2 7.7 60 3.9 NNE 9 13 5 7 - - 0.0
21/09:00am 14.5 12.7 7.8 64 3.4 NE 7 13 4 7 - - 0.2
21/08:30am 13.5 11.6 9.2 75 2.2 ENE 9 11 5 6 - - 0.2
21/08:00am 11.9 10.3 8.6 80 1.7 ENE 7 9 4 5 - - 0.2
21/07:30am 10.2 8.9 7.6 84 1.3 ENE 4 4 2 2 - - 0.2
21/07:00am 8.7 6.7 7.0 89 0.8 E 7 7 4 4 - - 0.2
21/06:30am 8.0 6.1 6.8 92 0.6 ENE 6 7 3 4 - - 0.2
21/06:00am 7.9 5.7 6.4 90 0.7 E 7 9 4 5 - - 0.2
21/05:30am 7.9 5.8 6.8 93 0.5 E 7 9 4 5 - - 0.2
21/05:00am 8.1 6.1 7.2 94 0.4 E 7 9 4 5 - - 0.2
21/04:30am 8.2 6.3 7.6 96 0.3 E 7 9 4 5 - - 0.2
21/04:00am 7.8 5.9 7.4 97 0.2 E 7 9 4 5 - - 0.2
21/03:30am 6.7 3.7 6.1 96 0.3 ESE 11 15 6 8 - - 0.2
21/03:00am 7.6 5.5 6.7 94 0.4 ESE 7 9 4 5 - - 0.2
21/02:30am 8.0 6.1 6.9 93 0.5 E 6 7 3 4 - - 0.0
21/02:00am 8.8 6.6 7.7 93 0.5 E 9 11 5 6 - - 0.0
21/01:30am 8.9 7.0 7.7 92 0.6 E 7 13 4 7 - - 0.0
21/01:00am 9.5 7.0 8.3 92 0.6 E 11 15 6 8 - - 0.0
21/12:30am 9.3 6.0 7.9 91 0.7 E 15 17 8 9 - - 0.0
21/12:00am 9.7 6.4 8.0 89 0.8 E 15 19 8 10 - - 0.0
 
Date/Time
CST
Temp
°C
App
Temp
°C
Dew
Point
Rel
Hum
%
Delta-T
°C
Wind Press
QNH
hPa
Press
MSL
hPa
Rain
since 9 am
mm
Dir
 
Spd
km/h
Gust
km/h
Spd
kts
Gust
kts
20/11:30pm 9.9 6.1 7.7 86 1.1 E 17 22 9 12 - - 0.0
20/11:00pm 9.2 6.0 7.0 86 1.0 E 13 15 7 8 - - 0.0
20/10:30pm 9.6 6.6 7.5 87 1.0 E 13 17 7 9 - - 0.0
20/10:00pm 8.9 6.6 7.5 91 0.7 E 9 11 5 6 - - 0.0
20/09:30pm 9.2 6.6 7.8 91 0.7 E 11 17 6 9 - - 0.0
20/09:00pm 8.6 6.2 7.2 91 0.7 ESE 9 13 5 7 - - 0.0
20/08:30pm 9.9 7.0 8.3 90 0.8 E 13 17 7 9 - - 0.0
20/08:00pm 10.2 7.0 8.5 89 0.8 ESE 15 17 8 9 - - 0.0
20/07:30pm 10.9 7.9 9.2 89 0.9 E 15 20 8 11 - - 0.0
20/07:00pm 10.9 7.7 8.5 85 1.2 E 15 19 8 10 - - 0.0
20/06:30pm 11.4 8.0 7.5 77 1.9 ESE 15 20 8 11 - - 0.0
20/06:00pm 13.4 9.3 6.3 62 3.4 E 17 22 9 12 - - 0.0
20/05:30pm 14.7 10.1 5.8 55 4.3 ESE 19 28 10 15 - - 0.0
20/05:00pm 15.9 11.9 6.6 54 4.6 E 17 22 9 12 - - 0.0
20/04:30pm 16.8 12.6 5.7 48 5.4 E 17 22 9 12 - - 0.0
20/04:00pm 17.4 13.6 7.7 53 4.9 E 17 22 9 12 - - 0.0
20/03:30pm 17.8 13.6 7.5 51 5.2 E 19 24 10 13 - - 0.0
20/03:00pm 18.4 14.7 6.3 45 6.0 ENE 15 20 8 11 - - 0.0
20/02:30pm 18.3 14.8 7.4 49 5.6 ENE 15 20 8 11 - - 0.0
20/02:00pm 18.4 15.4 7.5 49 5.6 E 13 19 7 10 - - 0.0
20/01:30pm 18.1 15.1 7.8 51 5.3 E 13 19 7 10 - - 0.0
20/01:00pm 17.8 14.6 8.4 54 4.9 E 15 20 8 11 - - 0.0
20/12:30pm 17.8 14.8 7.8 52 5.1 NE 13 19 7 10 - - 0.0
20/12:00pm 17.3 14.3 7.9 54 4.8 NE 13 20 7 11 - - 0.0
20/11:30am 16.7 13.6 7.1 53 4.8 NE 13 17 7 9 - - 0.0
20/11:00am 16.6 13.6 7.5 55 4.6 NNE 13 20 7 11 - - 0.0
20/10:30am 15.9 12.7 8.4 61 3.8 NE 15 22 8 12 - - 0.0
20/10:00am 14.9 11.3 8.2 64 3.4 NE 17 22 9 12 - - 0.0
20/09:30am 14.6 11.4 6.9 60 3.8 NE 13 24 7 13 - - 0.0
20/09:00am 14.1 12.1 8.7 70 2.7 E 9 13 5 7 - - 0.0
20/08:30am 12.8 10.3 8.3 74 2.2 E 11 17 6 9 - - 0.0
20/08:00am 10.6 8.4 7.8 83 1.4 E 9 13 5 7 - - 0.0
20/07:30am 8.4 6.9 6.9 90 0.7 E 4 7 2 4 - - 0.0
20/07:00am 6.1 4.3 5.4 95 0.3 E 4 6 2 3 - - 0.0
20/06:30am 4.8 2.7 3.9 94 0.4 E 4 7 2 4 - - 0.0
20/06:00am 6.4 4.6 5.2 92 0.5 E 4 7 2 4 - - 0.0
20/05:30am 6.6 4.9 5.7 94 0.4 ENE 4 7 2 4 - - 0.0
20/05:00am 6.1 3.6 4.7 91 0.6 E 7 9 4 5 - - 0.0
20/04:30am 6.8 4.1 5.4 91 0.6 ENE 9 15 5 8 - - 0.0
20/04:00am 6.3 3.4 4.9 91 0.6 E 9 13 5 7 - - 0.0
20/03:30am 6.6 3.5 5.4 92 0.5 ENE 11 13 6 7 - - 0.0
20/03:00am 6.9 4.2 5.7 92 0.5 E 9 13 5 7 - - 0.0
20/02:30am 6.9 3.9 5.8 93 0.5 E 11 13 6 7 - - 0.0
20/02:00am 6.6 3.9 5.6 93 0.4 E 9 11 5 6 - - 0.0
20/01:30am 6.8 4.1 5.4 91 0.6 ESE 9 11 5 6 - - 0.0
20/01:00am 7.6 4.2 6.1 90 0.7 E 13 15 7 8 - - 0.0
20/12:30am 7.7 4.7 5.8 88 0.9 E 11 13 6 7 - - 0.0
20/12:00am 7.5 4.5 5.8 89 0.8 E 11 13 6 7 - - 0.0

Other Formats:

Comma delimited format used in spreadsheet applications
http://www.bom.gov.au/fwo/IDS60801/IDS60801.94807.axf

JavaScript Object Notation format (JSON) in row-major order
http://www.bom.gov.au/fwo/IDS60801/IDS60801.94807.json